Star City, AR (71667)

2:34 PM CST on December 04, 2016 (GMT -0600)
Grider | | Change Station

Elev 207 ft 34.17 °N, 91.93 °W | Updated 41 minutes ago

Overcast
Overcast
46 °F
Feels Like 42 °F
N
8
Wind Variable Wind from NNW

Today
High -- | Low -- °F
--% Chance of Precip.
Yesterday
High -- | Low -- °F
Precip. -- in
Pressure 30.00 in
Visibility 10.0 miles
Clouds Overcast 600 ft
Windchill 42 °F
Dew Point 44 °F
Humidity 93%
Rainfall 0.08 in
Snow Depth Not available.
6:57 AM 4:58 PM
Waxing Crescent, 25% visible
METAR KPBF 041953Z AUTO 33007KT 10SM OVC006 08/07 A3000 RMK AO2 SLP158 T00780067
Pressure 30.00 in
Visibility 10.0 miles
Clouds Overcast 600 ft
Windchill 42 °F
Dew Point 44 °F
Humidity 93%
Rainfall 0.08 in
Snow Depth Not available.
6:57 AM 4:58 PM
Waxing Crescent, 25% visible
METAR KPBF 041953Z AUTO 33007KT 10SM OVC006 08/07 A3000 RMK AO2 SLP158 T00780067

10-Day Weather Forecast

Almanac

Astronomy

Dec. 04, 2016 Rise Set
Actual Time
Civil Twilight
Nautical Twilight
Astronomical Twilight
Moon
Length of Visible Light
Length of Day
Tomorrow will be .
, % of the Moon is Illuminated

Today's Extremes

State Highs State Lows

Community

WunderPhotos

Upload Photos

1,955,667 photos uploaded!

WunderBlog® & News

Nearby

Air Quality

  Air Quality AQ Index Pollutant
Not available.

Snow Depth

Station Depth Elevation

Earthquake Activity

City Distance Mag. Time & Date
Minimum magnitude displayed is 2.5.

Coastal Water Temperatures

Place Temperature

Stations

Nearby Weather Stations

Station Location Temp. Windchill Dew Point Humidity Wind Precip. Elev Updated Type
                   

Watches & Warnings

There are currently no watches in effect.